Terminal Aerodrome Forecast
Issued by NWS Cleveland, OH

Home | Current Version | Previous Version | Graphics & Text | Print | Product List | Glossary Off
Versions: 1 2 3 4 5 6 7 8 9 10 11 12 13 14 15

000
FTUS41 KCLE 231122
TAFTOL
TAF
KTOL 231122Z 2312/2412 00000KT 6SM BR FEW200
      TEMPO 2312/2313 2SM BR
     FM231400 08005KT P6SM FEW250
     FM240900 10002KT 5SM BR FEW250=

USA.gov is the U.S. government's official web portal to all federal, state and local government web resources and services.